Jenison, Michigan
Current Conditions -  °F | °C
As of 3:53 PM on Friday 28 Nov 2014 (Local Time) from KGRR Reporting Station
Light Snow Light Snow  
Wind Chill: 14°   Ceiling: 7000
Heat Index: 25°   Visibility: 9mi
Dew Point: 18°   Wind: 12mph
Humidity: 75%   Direction: 160°SSE
Pressure: 30.1"   Gusts: NA
Location:  42.9°N, 85.78°W
Report Text: KGRR 282053Z 16010KT 9SM -SN OVC070 M04/M08 A3010 RMK AO2 SNB43 SLP206 P0000 60000 T10391078 56030 $
Loading
Personal Weather Stations






























Interactive Weather Map New forecast layout! Learn more

10-Day Weather Forecast

Advertisements
Track Severe Weather on mobile